createdAt,value
2017-04-14T00:00:52.987Z,79.66
2017-04-14T00:01:53.560Z,79.76
2017-04-14T00:02:54.130Z,79.76
2017-04-14T00:03:54.700Z,79.95
2017-04-14T00:04:55.270Z,79.19
2017-04-14T00:05:55.860Z,78.91
2017-04-14T00:06:56.426Z,79.00
2017-04-14T00:07:56.996Z,78.91
2017-04-14T00:08:57.565Z,79.38
2017-04-14T00:09:58.137Z,79.66
2017-04-14T00:10:58.706Z,80.14
2017-04-14T00:11:59.275Z,79.76
2017-04-14T00:13:00.045Z,80.24
2017-04-14T00:14:00.615Z,80.04
2017-04-14T00:15:01.185Z,80.43
2017-04-14T00:16:01.755Z,80.14
2017-04-14T00:17:02.324Z,80.14
2017-04-14T00:18:02.896Z,80.33
2017-04-14T00:19:03.466Z,79.95
2017-04-14T00:20:04.036Z,80.24
2017-04-14T00:21:04.622Z,80.24
2017-04-14T00:22:05.191Z,80.52
2017-04-14T00:23:05.760Z,81.18
2017-04-14T00:24:06.330Z,80.99
2017-04-14T00:25:06.903Z,80.80
2017-04-14T00:26:07.489Z,81.09
2017-04-14T00:27:08.059Z,80.90
2017-04-14T00:28:08.833Z,80.99
2017-04-14T00:29:09.416Z,80.90
2017-04-14T00:30:09.987Z,80.80
2017-04-14T00:31:10.557Z,81.27
2017-04-14T00:32:11.130Z,81.09
2017-04-14T00:33:11.696Z,81.66
2017-04-14T00:34:12.265Z,81.18
2017-04-14T00:35:12.834Z,80.80
2017-04-14T00:36:13.405Z,80.71
2017-04-14T00:37:13.973Z,80.80
2017-04-14T00:38:14.544Z,81.18
2017-04-14T00:39:15.113Z,81.37
2017-04-14T00:40:15.682Z,81.18
2017-04-14T00:41:16.267Z,81.18
2017-04-14T00:42:16.836Z,81.09
2017-04-14T00:43:17.606Z,81.56
2017-04-14T00:44:18.175Z,81.56
2017-04-14T00:45:18.744Z,81.56
2017-04-14T00:46:19.314Z,81.85
2017-04-14T00:47:19.885Z,81.85
2017-04-14T00:48:20.455Z,81.85
2017-04-14T00:49:21.023Z,81.37
2017-04-14T00:50:21.592Z,81.85
2017-04-14T00:51:22.177Z,82.32
2017-04-14T00:52:22.750Z,82.32
2017-04-14T00:53:23.332Z,82.42
2017-04-14T00:54:23.901Z,82.23
2017-04-14T00:55:24.471Z,82.32
2017-04-14T00:56:25.042Z,82.32
2017-04-14T00:57:25.613Z,81.85
2017-04-14T00:58:26.382Z,82.51
2017-04-14T00:59:26.953Z,82.70
2017-04-14T01:00:27.523Z,83.17
2017-04-14T01:01:28.092Z,82.70
2017-04-14T01:02:28.677Z,82.70
2017-04-14T01:03:29.244Z,82.60
2017-04-14T01:04:29.813Z,83.08
2017-04-14T01:05:30.386Z,82.79
2017-04-14T01:06:30.950Z,82.51
2017-04-14T01:07:31.523Z,82.70
2017-04-14T01:08:32.090Z,83.27
2017-04-14T01:09:32.661Z,83.27
2017-04-14T01:10:33.231Z,83.74
2017-04-14T01:11:33.801Z,83.84
2017-04-14T01:12:34.371Z,83.36
2017-04-14T01:13:35.141Z,83.42
2017-04-14T01:14:35.712Z,83.51
2017-04-14T01:15:36.283Z,83.36
2017-04-14T01:16:36.854Z,83.55
2017-04-14T01:17:37.423Z,83.23
2017-04-14T01:18:37.992Z,84.17
2017-04-14T01:19:38.579Z,84.36
2017-04-14T01:20:39.150Z,84.08
2017-04-14T01:21:39.719Z,83.80
2017-04-14T01:22:40.290Z,84.03
2017-04-14T01:23:40.858Z,84.27
2017-04-14T01:24:41.429Z,84.84
2017-04-14T01:25:42.000Z,84.65
2017-04-14T01:26:42.569Z,84.55
2017-04-14T01:27:43.140Z,84.65
2017-04-14T01:28:43.910Z,84.65
2017-04-14T01:29:44.481Z,85.03
2017-04-14T01:30:45.051Z,85.03
2017-04-14T01:31:45.625Z,85.50
2017-04-14T01:32:46.191Z,85.17
2017-04-14T01:33:46.761Z,85.41
2017-04-14T01:34:47.334Z,85.45
2017-04-14T01:35:47.904Z,85.36
2017-04-14T01:36:48.474Z,85.60
2017-04-14T01:37:49.045Z,85.69
2017-04-14T01:38:49.614Z,86.07
2017-04-14T01:39:50.185Z,85.74
2017-04-14T01:40:50.756Z,86.11
2017-04-14T01:41:51.326Z,85.64
2017-04-14T01:42:51.913Z,85.93
2017-04-14T01:43:52.685Z,86.11
2017-04-14T01:44:53.272Z,86.49
2017-04-14T01:45:53.842Z,86.30
2017-04-14T01:46:54.415Z,86.07
2017-04-14T01:47:54.982Z,86.35
2017-04-14T01:48:55.553Z,86.83
2017-04-14T01:49:56.139Z,87.21
2017-04-14T01:50:56.709Z,86.93
2017-04-14T01:51:57.280Z,87.40
2017-04-14T01:52:57.869Z,87.59
2017-04-14T01:53:58.442Z,87.21
2017-04-14T01:54:59.012Z,87.40
2017-04-14T01:55:59.601Z,87.21
2017-04-14T01:57:00.189Z,87.30
2017-04-14T01:58:00.758Z,87.40
2017-04-14T01:59:01.530Z,87.21
2017-04-14T02:00:02.100Z,87.68
2017-04-14T02:01:02.671Z,87.59
2017-04-14T02:02:03.242Z,87.12
2017-04-14T02:03:03.830Z,87.02
2017-04-14T02:04:04.401Z,87.68
2017-04-14T02:05:04.973Z,87.30
2017-04-14T02:06:05.542Z,87.97
2017-04-14T02:07:06.114Z,88.16
2017-04-14T02:08:06.683Z,88.25
2017-04-14T02:09:07.254Z,87.97
2017-04-14T02:10:07.828Z,88.06
2017-04-14T02:11:08.395Z,88.35
2017-04-14T02:12:08.966Z,87.77
2017-04-14T02:13:09.540Z,88.16
2017-04-14T02:14:10.306Z,87.97
2017-04-14T02:15:10.874Z,88.16
2017-04-14T02:16:11.445Z,88.73
2017-04-14T02:17:12.016Z,88.63
2017-04-14T02:18:12.605Z,88.63
2017-04-14T02:19:13.175Z,88.73
2017-04-14T02:20:13.744Z,88.82
2017-04-14T02:21:14.313Z,89.29
2017-04-14T02:22:14.884Z,89.11
2017-04-14T02:23:15.455Z,89.01
2017-04-14T02:24:16.024Z,89.11
2017-04-14T02:25:16.593Z,89.20
2017-04-14T02:26:17.162Z,89.11
2017-04-14T02:27:17.732Z,89.29
2017-04-14T02:28:18.321Z,89.48
2017-04-14T02:29:19.092Z,89.48
2017-04-14T02:30:19.662Z,89.39
2017-04-14T02:31:20.234Z,89.29
2017-04-14T02:32:20.803Z,89.29
2017-04-14T02:33:21.373Z,88.82
2017-04-14T02:34:21.944Z,88.73
2017-04-14T02:35:22.514Z,88.92
2017-04-14T02:36:23.085Z,88.63
2017-04-14T02:37:23.657Z,88.54
2017-04-14T02:38:24.225Z,88.82
2017-04-14T02:39:24.798Z,88.73
2017-04-14T02:40:25.366Z,89.48
2017-04-14T02:41:25.953Z,89.20
2017-04-14T02:42:26.523Z,89.39
2017-04-14T02:43:27.092Z,89.39
2017-04-14T02:44:27.863Z,88.82
2017-04-14T02:45:28.432Z,89.29
2017-04-14T02:46:29.020Z,89.01
2017-04-14T02:47:29.590Z,89.29
2017-04-14T02:48:30.161Z,89.39
2017-04-14T02:49:30.730Z,89.39
2017-04-14T02:50:31.301Z,89.01
2017-04-14T02:51:31.870Z,89.11
2017-04-14T02:52:32.440Z,88.92
2017-04-14T02:53:33.011Z,88.16
2017-04-14T02:54:33.581Z,88.92
2017-04-14T02:55:34.151Z,89.39
2017-04-14T02:56:34.719Z,88.54
2017-04-14T02:57:35.290Z,89.20
2017-04-14T02:58:35.860Z,89.29
2017-04-14T02:59:36.636Z,89.48
2017-04-14T03:00:37.216Z,89.29
2017-04-14T03:01:37.788Z,89.39
2017-04-14T03:02:38.358Z,89.48
2017-04-14T03:03:38.929Z,89.48
2017-04-14T03:04:39.499Z,89.58
2017-04-14T03:05:40.070Z,89.77
2017-04-14T03:06:40.642Z,89.29
2017-04-14T03:07:41.211Z,89.58
2017-04-14T03:08:41.780Z,89.48
2017-04-14T03:09:42.350Z,89.58
2017-04-14T03:10:42.919Z,89.20
2017-04-14T03:11:43.490Z,89.11
2017-04-14T03:12:44.059Z,89.20
2017-04-14T03:13:44.635Z,89.29
2017-04-14T03:14:45.415Z,89.39
2017-04-14T03:15:45.985Z,89.58
2017-04-14T03:16:46.559Z,89.58
2017-04-14T03:17:47.126Z,90.05
2017-04-14T03:18:47.712Z,89.39
2017-04-14T03:19:48.267Z,90.05
2017-04-14T03:20:48.838Z,90.15
2017-04-14T03:21:49.408Z,89.86
2017-04-14T03:22:49.977Z,89.48
2017-04-14T03:23:50.564Z,90.34
2017-04-14T03:24:51.133Z,90.24
2017-04-14T03:25:51.705Z,90.05
2017-04-14T03:26:52.274Z,90.34
2017-04-14T03:27:52.862Z,89.77
2017-04-14T03:28:53.432Z,90.05
2017-04-14T03:29:54.204Z,89.86
2017-04-14T03:30:54.773Z,89.58
2017-04-14T03:31:55.343Z,90.05
2017-04-14T03:32:55.914Z,90.53
2017-04-14T03:33:56.500Z,90.15
2017-04-14T03:34:57.072Z,90.43
2017-04-14T03:35:57.640Z,90.53
2017-04-14T03:36:58.209Z,90.05
2017-04-14T03:37:58.778Z,90.53
2017-04-14T03:38:59.350Z,90.15
2017-04-14T03:39:59.928Z,90.53
2017-04-14T03:41:00.490Z,90.53
2017-04-14T03:42:01.059Z,90.24
2017-04-14T03:43:01.629Z,90.24
2017-04-14T03:44:02.200Z,90.53
2017-04-14T03:45:02.972Z,90.72
2017-04-14T03:46:03.541Z,90.24
2017-04-14T03:47:04.113Z,90.05
2017-04-14T03:48:04.682Z,90.24
2017-04-14T03:49:05.252Z,90.53
2017-04-14T03:50:05.821Z,90.72
2017-04-14T03:51:06.392Z,90.05
2017-04-14T03:52:06.964Z,90.72
2017-04-14T03:53:07.533Z,90.53
2017-04-14T03:54:08.103Z,90.62
2017-04-14T03:55:08.690Z,90.34
2017-04-14T03:56:09.262Z,90.72
2017-04-14T03:57:09.830Z,90.72
2017-04-14T03:58:10.419Z,90.81
2017-04-14T03:59:10.988Z,91.09
2017-04-14T04:00:11.758Z,90.81
2017-04-14T04:01:12.327Z,91.09
2017-04-14T04:02:12.897Z,91.00
2017-04-14T04:03:13.466Z,91.38
2017-04-14T04:04:14.035Z,91.47
2017-04-14T04:05:14.605Z,91.47
2017-04-14T04:06:15.177Z,91.57
2017-04-14T04:07:15.746Z,91.38
2017-04-14T04:08:16.316Z,91.66
2017-04-14T04:09:16.888Z,91.57
2017-04-14T04:10:17.458Z,91.38
2017-04-14T04:11:18.027Z,92.04
2017-04-14T04:12:18.598Z,92.04
2017-04-14T04:13:19.167Z,92.04
2017-04-14T04:14:19.738Z,92.04
2017-04-14T04:15:20.508Z,91.95
2017-04-14T04:16:21.079Z,91.95
2017-04-14T04:17:21.646Z,92.42
2017-04-14T04:18:22.218Z,92.23
2017-04-14T04:19:22.787Z,92.14
2017-04-14T04:20:23.356Z,92.04
2017-04-14T04:21:23.927Z,92.33
2017-04-14T04:22:24.496Z,92.23
2017-04-14T04:23:25.067Z,91.95
2017-04-14T04:24:25.636Z,92.52
2017-04-14T04:25:26.205Z,92.71
2017-04-14T04:26:26.776Z,92.80
2017-04-14T04:27:27.363Z,92.80
2017-04-14T04:28:27.939Z,92.42
2017-04-14T04:29:28.500Z,92.52
2017-04-14T04:30:29.069Z,92.23
2017-04-14T04:31:29.658Z,92.99
2017-04-14T04:32:30.246Z,92.99
2017-04-14T04:33:30.816Z,92.80
2017-04-14T04:34:31.389Z,93.27
2017-04-14T04:35:31.958Z,92.99
2017-04-14T04:36:32.531Z,92.99
2017-04-14T04:37:33.100Z,93.08
2017-04-14T04:38:33.672Z,92.99
2017-04-14T04:39:34.242Z,93.18
2017-04-14T04:40:34.811Z,93.13
2017-04-14T04:41:35.383Z,92.99
2017-04-14T04:42:35.956Z,92.90
2017-04-14T04:43:36.545Z,92.80
2017-04-14T04:44:37.115Z,93.04
2017-04-14T04:45:37.885Z,93.13
2017-04-14T04:46:38.459Z,93.23
2017-04-14T04:47:39.025Z,93.13
2017-04-14T04:48:39.616Z,93.32
2017-04-14T04:49:40.202Z,93.65
2017-04-14T04:50:40.791Z,93.46
2017-04-14T04:51:41.361Z,92.23
2017-04-14T04:52:41.932Z,91.05
2017-04-14T04:53:42.503Z,91.90
2017-04-14T04:54:43.075Z,91.95
2017-04-14T04:55:43.646Z,91.85
2017-04-14T04:56:44.215Z,92.23
2017-04-14T04:57:44.787Z,92.61
2017-04-14T04:58:45.357Z,92.90
2017-04-14T04:59:45.928Z,93.27
2017-04-14T05:00:46.501Z,93.65
2017-04-14T05:01:47.072Z,92.61
2017-04-14T05:02:47.644Z,92.80
2017-04-14T05:03:48.215Z,92.90
2017-04-14T05:04:48.786Z,93.27
2017-04-14T05:05:49.360Z,93.18
2017-04-14T05:06:49.931Z,92.90
2017-04-14T05:07:50.521Z,93.46
2017-04-14T05:08:51.093Z,92.90
2017-04-14T05:09:51.666Z,93.37
2017-04-14T05:10:52.438Z,93.27
2017-04-14T05:11:53.010Z,93.18
2017-04-14T05:12:53.579Z,93.46
2017-04-14T05:13:54.152Z,93.37
2017-04-14T05:14:54.725Z,93.46
2017-04-14T05:15:55.297Z,93.46
2017-04-14T05:16:55.869Z,92.99
2017-04-14T05:17:56.443Z,92.90
2017-04-14T05:18:57.031Z,93.18
2017-04-14T05:19:57.619Z,92.52
2017-04-14T05:20:58.192Z,92.52
2017-04-14T05:21:58.772Z,92.61
2017-04-14T05:22:59.344Z,92.80
2017-04-14T05:23:59.935Z,92.80
2017-04-14T05:25:00.508Z,92.99
2017-04-14T05:26:01.079Z,93.18
2017-04-14T05:27:01.651Z,92.90
2017-04-14T05:28:02.225Z,92.47
2017-04-14T05:29:02.798Z,92.23
2017-04-14T05:30:03.371Z,92.42
2017-04-14T05:31:03.945Z,92.94
2017-04-14T05:32:04.518Z,93.41
2017-04-14T05:33:05.091Z,93.32
2017-04-14T05:34:05.664Z,92.94
2017-04-14T05:35:06.238Z,92.85
2017-04-14T05:36:06.812Z,93.04
2017-04-14T05:37:07.388Z,93.04
2017-04-14T05:38:07.980Z,92.94
2017-04-14T05:39:08.551Z,92.47
2017-04-14T05:40:09.124Z,92.47
2017-04-14T05:41:09.897Z,92.47
2017-04-14T05:42:10.468Z,92.94
2017-04-14T05:43:11.042Z,92.38
2017-04-14T05:44:11.617Z,92.47
2017-04-14T05:45:12.192Z,92.57
2017-04-14T05:46:12.763Z,92.85
2017-04-14T05:47:13.337Z,92.18
2017-04-14T05:48:13.926Z,92.38
2017-04-14T05:49:14.501Z,92.09
2017-04-14T05:50:15.073Z,92.14
2017-04-14T05:51:15.646Z,91.75
2017-04-14T05:52:16.222Z,91.52
2017-04-14T05:53:16.795Z,90.67
2017-04-14T05:54:17.369Z,90.76
2017-04-14T05:55:17.943Z,91.14
2017-04-14T05:56:18.516Z,90.00
2017-04-14T05:57:19.106Z,90.48
2017-04-14T05:58:19.681Z,91.05
2017-04-14T05:59:20.257Z,91.05
2017-04-14T06:00:20.832Z,90.76
2017-04-14T06:01:21.405Z,90.86
2017-04-14T06:02:21.978Z,91.24
2017-04-14T06:03:22.571Z,91.00
2017-04-14T06:04:23.146Z,90.62
2017-04-14T06:05:23.719Z,90.24
2017-04-14T06:06:24.494Z,90.14
2017-04-14T06:07:25.071Z,90.24
2017-04-14T06:08:25.646Z,90.24
2017-04-14T06:09:26.238Z,90.05
2017-04-14T06:10:26.810Z,90.24
2017-04-14T06:11:27.387Z,90.47
2017-04-14T06:12:27.977Z,89.90
2017-04-14T06:13:28.545Z,90.66
2017-04-14T06:14:29.119Z,89.62
2017-04-14T06:15:29.698Z,90.00
2017-04-14T06:16:30.268Z,90.09
2017-04-14T06:17:30.843Z,90.09
2017-04-14T06:18:31.418Z,90.00
2017-04-14T06:19:31.995Z,89.81
2017-04-14T06:20:32.568Z,89.43
2017-04-14T06:21:33.142Z,88.57
2017-04-14T06:22:33.718Z,88.86
2017-04-14T06:23:34.291Z,88.67
2017-04-14T06:24:34.865Z,89.53
2017-04-14T06:25:35.440Z,88.62
2017-04-14T06:26:36.014Z,88.53
2017-04-14T06:27:36.606Z,89.09
2017-04-14T06:28:37.182Z,88.24
2017-04-14T06:29:37.755Z,88.34
2017-04-14T06:30:38.333Z,87.67
2017-04-14T06:31:38.903Z,87.67
2017-04-14T06:32:39.479Z,87.10
2017-04-14T06:33:40.054Z,87.10
2017-04-14T06:34:40.629Z,87.24
2017-04-14T06:35:41.203Z,86.67
2017-04-14T06:36:41.778Z,86.38
2017-04-14T06:37:42.353Z,86.57
2017-04-14T06:38:42.945Z,86.10
2017-04-14T06:39:43.520Z,86.29
2017-04-14T06:40:44.097Z,86.00
2017-04-14T06:41:44.671Z,86.10
2017-04-14T06:42:45.246Z,85.91
2017-04-14T06:43:45.821Z,85.62
2017-04-14T06:44:46.395Z,85.68
2017-04-14T06:45:46.994Z,85.96
2017-04-14T06:46:47.563Z,86.05
2017-04-14T06:47:48.148Z,86.24
2017-04-14T06:48:48.733Z,86.43
2017-04-14T06:49:49.324Z,85.77
2017-04-14T06:50:49.899Z,86.63
2017-04-14T06:51:50.474Z,86.24
2017-04-14T06:52:51.049Z,85.96
2017-04-14T06:53:51.622Z,86.15
2017-04-14T06:54:52.214Z,85.68
2017-04-14T06:55:52.807Z,86.24
2017-04-14T06:56:53.399Z,85.86
2017-04-14T06:57:53.976Z,86.05
2017-04-14T06:58:54.550Z,85.77
2017-04-14T06:59:55.123Z,86.53
2017-04-14T07:00:55.698Z,86.43
2017-04-14T07:01:56.473Z,86.05
2017-04-14T07:02:57.047Z,85.77
2017-04-14T07:03:57.624Z,86.15
2017-04-14T07:04:58.198Z,86.43
2017-04-14T07:05:58.790Z,85.96
2017-04-14T07:06:59.366Z,86.15
2017-04-14T07:07:59.941Z,85.77
2017-04-14T07:09:00.516Z,85.86
2017-04-14T07:10:01.091Z,85.77
2017-04-14T07:11:01.666Z,86.05
2017-04-14T07:12:02.239Z,85.77
2017-04-14T07:13:02.814Z,86.24
2017-04-14T07:14:03.387Z,85.58
2017-04-14T07:15:03.964Z,85.86
2017-04-14T07:16:04.538Z,86.34
2017-04-14T07:17:05.113Z,86.24
2017-04-14T07:18:05.687Z,86.01
2017-04-14T07:19:06.260Z,85.91
2017-04-14T07:20:06.837Z,85.77
2017-04-14T07:21:07.410Z,85.86
2017-04-14T07:22:07.985Z,86.20
2017-04-14T07:23:08.559Z,86.49
2017-04-14T07:24:09.135Z,85.82
2017-04-14T07:25:09.710Z,85.91
2017-04-14T07:26:10.284Z,86.43
2017-04-14T07:27:10.859Z,86.24
2017-04-14T07:28:11.433Z,85.86
2017-04-14T07:29:12.011Z,86.05
2017-04-14T07:30:12.584Z,85.72
2017-04-14T07:31:13.159Z,86.01
2017-04-14T07:32:13.733Z,86.63
2017-04-14T07:33:14.308Z,86.24
2017-04-14T07:34:14.886Z,86.49
2017-04-14T07:35:15.479Z,86.63
2017-04-14T07:36:16.070Z,86.34
2017-04-14T07:37:16.645Z,86.49
2017-04-14T07:38:17.218Z,86.63
2017-04-14T07:39:17.794Z,86.24
2017-04-14T07:40:18.369Z,85.86
2017-04-14T07:41:18.944Z,86.34
2017-04-14T07:42:19.517Z,86.43
2017-04-14T07:43:20.093Z,86.05
2017-04-14T07:44:20.667Z,86.53
2017-04-14T07:45:21.260Z,86.34
2017-04-14T07:46:21.851Z,85.39
2017-04-14T07:47:22.427Z,85.77
2017-04-14T07:48:23.019Z,86.24
2017-04-14T07:49:23.592Z,85.86
2017-04-14T07:50:24.184Z,85.96
2017-04-14T07:51:24.762Z,85.96
2017-04-14T07:52:25.335Z,86.05
2017-04-14T07:53:25.910Z,86.11
2017-04-14T07:54:26.485Z,86.15
2017-04-14T07:55:27.059Z,86.05
2017-04-14T07:56:27.634Z,86.24
2017-04-14T07:57:28.207Z,85.77
2017-04-14T07:58:28.783Z,86.05
2017-04-14T07:59:29.376Z,86.24
2017-04-14T08:00:29.950Z,86.24
2017-04-14T08:01:30.524Z,86.24
2017-04-14T08:02:31.115Z,85.77
2017-04-14T08:03:31.692Z,86.24
2017-04-14T08:04:32.268Z,85.96
2017-04-14T08:05:32.842Z,85.68
2017-04-14T08:06:33.416Z,86.05
2017-04-14T08:07:33.991Z,85.96
2017-04-14T08:08:34.567Z,86.05
2017-04-14T08:09:35.142Z,86.05
2017-04-14T08:10:35.717Z,86.05
2017-04-14T08:11:36.291Z,85.86
2017-04-14T08:12:37.066Z,85.86
2017-04-14T08:13:37.639Z,86.15
2017-04-14T08:14:38.214Z,86.05
2017-04-14T08:15:38.789Z,86.15
2017-04-14T08:16:39.364Z,85.86
2017-04-14T08:17:39.938Z,86.34
2017-04-14T08:18:40.512Z,85.68
2017-04-14T08:19:41.088Z,86.43
2017-04-14T08:20:41.661Z,86.05
2017-04-14T08:21:42.236Z,85.86
2017-04-14T08:22:43.013Z,86.05
2017-04-14T08:23:43.586Z,86.05
2017-04-14T08:24:44.162Z,85.96
2017-04-14T08:25:44.736Z,85.77
2017-04-14T08:26:45.312Z,85.86
2017-04-14T08:27:45.889Z,85.77
2017-04-14T08:28:46.462Z,85.77
2017-04-14T08:29:47.037Z,86.15
2017-04-14T08:30:47.611Z,85.86
2017-04-14T08:31:48.187Z,86.05
2017-04-14T08:32:48.761Z,86.19
2017-04-14T08:33:49.353Z,86.05
2017-04-14T08:34:49.928Z,85.81
2017-04-14T08:35:50.521Z,86.29
2017-04-14T08:36:51.098Z,85.62
2017-04-14T08:37:51.673Z,86.10
2017-04-14T08:38:52.247Z,85.72
2017-04-14T08:39:52.821Z,85.72
2017-04-14T08:40:53.397Z,85.91
2017-04-14T08:41:53.970Z,86.10
2017-04-14T08:42:54.743Z,85.81
2017-04-14T08:43:55.317Z,85.91
2017-04-14T08:44:55.911Z,85.91
2017-04-14T08:45:56.501Z,85.81
2017-04-14T08:46:57.076Z,85.72
2017-04-14T08:47:57.655Z,85.81
2017-04-14T08:48:58.229Z,86.29
2017-04-14T08:49:58.802Z,85.81
2017-04-14T08:50:59.377Z,85.91
2017-04-14T08:51:59.954Z,85.24
2017-04-14T08:53:00.529Z,85.72
2017-04-14T08:54:01.107Z,85.72
2017-04-14T08:55:01.682Z,85.91
2017-04-14T08:56:02.256Z,85.43
2017-04-14T08:57:02.830Z,85.43
2017-04-14T08:58:03.420Z,85.62
2017-04-14T08:59:03.995Z,85.53
2017-04-14T09:00:04.571Z,85.15
2017-04-14T09:01:05.145Z,84.95
2017-04-14T09:02:05.719Z,85.62
2017-04-14T09:03:06.497Z,85.72
2017-04-14T09:04:07.070Z,85.34
2017-04-14T09:05:07.647Z,85.43
2017-04-14T09:06:08.221Z,84.95
2017-04-14T09:07:08.813Z,85.15
2017-04-14T09:08:09.389Z,85.53
2017-04-14T09:09:09.963Z,85.05
2017-04-14T09:10:10.538Z,84.67
2017-04-14T09:11:11.116Z,84.86
2017-04-14T09:12:11.687Z,84.77
2017-04-14T09:13:12.463Z,84.86
2017-04-14T09:14:13.037Z,84.77
2017-04-14T09:15:13.612Z,85.05
2017-04-14T09:16:14.186Z,85.10
2017-04-14T09:17:14.760Z,85.00
2017-04-14T09:18:15.337Z,85.05
2017-04-14T09:19:15.912Z,85.05
2017-04-14T09:20:16.487Z,84.86
2017-04-14T09:21:17.063Z,84.58
2017-04-14T09:22:17.640Z,84.86
2017-04-14T09:23:18.232Z,84.91
2017-04-14T09:24:18.806Z,84.81
2017-04-14T09:25:19.382Z,84.91
2017-04-14T09:26:19.974Z,85.10
2017-04-14T09:27:20.550Z,85.00
2017-04-14T09:28:21.125Z,84.95
2017-04-14T09:29:21.699Z,84.91
2017-04-14T09:30:22.275Z,84.91
2017-04-14T09:31:22.851Z,84.77
2017-04-14T09:32:23.424Z,85.10
2017-04-14T09:33:23.999Z,85.00
2017-04-14T09:34:24.576Z,85.00
2017-04-14T09:35:25.151Z,84.91
2017-04-14T09:36:25.726Z,84.91
2017-04-14T09:37:26.301Z,85.28
2017-04-14T09:38:27.076Z,85.10
2017-04-14T09:39:27.652Z,85.00
2017-04-14T09:40:28.227Z,84.91
2017-04-14T09:41:28.803Z,84.86
2017-04-14T09:42:29.378Z,85.19
2017-04-14T09:43:29.952Z,85.10
2017-04-14T09:44:30.528Z,84.91
2017-04-14T09:45:31.103Z,84.33
2017-04-14T09:46:31.678Z,84.91
2017-04-14T09:47:32.254Z,85.10
2017-04-14T09:48:32.846Z,84.72
2017-04-14T09:49:33.420Z,84.05
2017-04-14T09:50:33.996Z,84.14
2017-04-14T09:51:34.571Z,84.43
2017-04-14T09:52:35.164Z,84.24
2017-04-14T09:53:35.938Z,84.05
2017-04-14T09:54:36.513Z,84.33
2017-04-14T09:55:37.087Z,84.91
2017-04-14T09:56:37.663Z,85.10
2017-04-14T09:57:38.239Z,84.43
2017-04-14T09:58:38.814Z,84.33
2017-04-14T09:59:39.390Z,84.05
2017-04-14T10:00:39.966Z,84.33
2017-04-14T10:01:40.540Z,84.43
2017-04-14T10:02:41.118Z,84.33
2017-04-14T10:03:41.909Z,84.43
2017-04-14T10:04:42.484Z,84.24
2017-04-14T10:05:43.059Z,84.62
2017-04-14T10:06:43.635Z,83.95
2017-04-14T10:07:44.214Z,83.48
2017-04-14T10:08:44.791Z,83.67
2017-04-14T10:09:45.360Z,84.43
2017-04-14T10:10:45.937Z,84.14
2017-04-14T10:11:46.511Z,84.05
2017-04-14T10:12:47.086Z,83.86
2017-04-14T10:13:47.664Z,83.48
2017-04-14T10:14:48.239Z,83.42
2017-04-14T10:15:48.814Z,83.71
2017-04-14T10:16:49.391Z,83.71
2017-04-14T10:17:49.966Z,83.58
2017-04-14T10:18:50.541Z,83.52
2017-04-14T10:19:51.117Z,83.33
2017-04-14T10:20:51.693Z,83.23
2017-04-14T10:21:52.268Z,83.23
2017-04-14T10:22:52.844Z,82.95
2017-04-14T10:23:53.421Z,82.95
2017-04-14T10:24:53.996Z,83.23
2017-04-14T10:25:54.571Z,82.38
2017-04-14T10:26:55.148Z,82.48
2017-04-14T10:27:55.741Z,82.28
2017-04-14T10:28:56.316Z,81.52
2017-04-14T10:29:56.892Z,81.81
2017-04-14T10:30:57.477Z,81.90
2017-04-14T10:31:58.043Z,81.90
2017-04-14T10:32:58.620Z,82.00
2017-04-14T10:33:59.196Z,81.81
2017-04-14T10:34:59.772Z,81.62
2017-04-14T10:36:00.347Z,81.71
2017-04-14T10:37:00.921Z,81.43
2017-04-14T10:38:01.498Z,81.62
2017-04-14T10:39:02.074Z,81.62
2017-04-14T10:40:02.650Z,81.71
2017-04-14T10:41:03.227Z,80.95
2017-04-14T10:42:03.802Z,80.47
2017-04-14T10:43:04.376Z,80.47
2017-04-14T10:44:04.954Z,80.99
2017-04-14T10:45:05.529Z,80.47
2017-04-14T10:46:06.104Z,80.76
2017-04-14T10:47:06.682Z,81.14
2017-04-14T10:48:07.258Z,81.14
2017-04-14T10:49:07.835Z,81.05
2017-04-14T10:50:08.410Z,81.14
2017-04-14T10:51:08.993Z,81.28
2017-04-14T10:52:09.565Z,81.43
2017-04-14T10:53:10.156Z,80.90
2017-04-14T10:54:10.733Z,80.80
2017-04-14T10:55:11.310Z,80.19
2017-04-14T10:56:11.884Z,79.81
2017-04-14T10:57:12.461Z,79.94
2017-04-14T10:58:13.038Z,79.38
2017-04-14T10:59:13.614Z,80.04
2017-04-14T11:00:14.189Z,79.85
2017-04-14T11:01:14.765Z,79.57
2017-04-14T11:02:15.344Z,79.66
2017-04-14T11:03:15.936Z,79.28
2017-04-14T11:04:16.712Z,79.19
2017-04-14T11:05:17.289Z,78.61
2017-04-14T11:06:17.866Z,79.19
2017-04-14T11:07:18.441Z,79.38
2017-04-14T11:08:19.019Z,79.57
2017-04-14T11:09:19.594Z,79.57
2017-04-14T11:10:20.171Z,79.85
2017-04-14T11:11:20.746Z,79.94
2017-04-14T11:12:21.326Z,79.57
2017-04-14T11:13:21.903Z,78.90
2017-04-14T11:14:22.480Z,78.33
2017-04-14T11:15:23.058Z,78.14
2017-04-14T11:16:23.633Z,77.95
2017-04-14T11:17:24.209Z,77.85
2017-04-14T11:18:24.785Z,78.42
2017-04-14T11:19:25.379Z,78.04
2017-04-14T11:20:25.957Z,77.85
2017-04-14T11:21:26.534Z,77.37
2017-04-14T11:22:27.111Z,77.22
2017-04-14T11:23:27.690Z,77.89
2017-04-14T11:24:28.466Z,77.22
2017-04-14T11:25:29.044Z,76.94
2017-04-14T11:26:29.623Z,77.22
2017-04-14T11:27:30.200Z,77.22
2017-04-14T11:28:30.779Z,77.32
2017-04-14T11:29:31.357Z,76.94
2017-04-14T11:30:31.934Z,76.56
2017-04-14T11:31:32.512Z,77.22
2017-04-14T11:32:33.089Z,76.75
2017-04-14T11:33:33.667Z,77.32
2017-04-14T11:34:34.244Z,76.65
2017-04-14T11:35:34.826Z,76.37
2017-04-14T11:36:35.400Z,76.65
2017-04-14T11:37:35.978Z,76.65
2017-04-14T11:38:36.556Z,76.37
2017-04-14T11:39:37.132Z,75.70
2017-04-14T11:40:37.710Z,75.23
2017-04-14T11:41:38.287Z,75.32
2017-04-14T11:42:38.864Z,75.23
2017-04-14T11:43:39.442Z,75.04
2017-04-14T11:44:40.019Z,75.42
2017-04-14T11:45:40.597Z,75.32
2017-04-14T11:46:41.175Z,75.13
2017-04-14T11:47:41.751Z,75.32
2017-04-14T11:48:42.330Z,74.94
2017-04-14T11:49:43.106Z,74.60
2017-04-14T11:50:43.683Z,74.31
2017-04-14T11:51:44.260Z,74.12
2017-04-14T11:52:44.839Z,73.89
2017-04-14T11:53:45.434Z,73.74
2017-04-14T11:54:46.010Z,73.65
2017-04-14T11:55:46.587Z,73.45
2017-04-14T11:56:47.164Z,74.12
2017-04-14T11:57:47.743Z,74.21
2017-04-14T11:58:48.321Z,73.65
2017-04-14T11:59:48.900Z,73.65
2017-04-14T12:00:49.479Z,74.12
2017-04-14T12:01:50.057Z,73.17
2017-04-14T12:02:50.635Z,73.45
2017-04-14T12:03:51.211Z,73.07
2017-04-14T12:04:51.990Z,72.97
2017-04-14T12:05:52.568Z,72.12
2017-04-14T12:06:53.147Z,72.69
2017-04-14T12:07:53.726Z,73.55
2017-04-14T12:08:54.306Z,73.55
2017-04-14T12:09:54.883Z,73.65
2017-04-14T12:10:55.463Z,73.77
2017-04-14T12:11:56.041Z,73.55
2017-04-14T12:12:56.620Z,72.60
2017-04-14T12:13:57.198Z,72.97
2017-04-14T12:14:57.785Z,72.31
2017-04-14T12:15:58.357Z,72.31
2017-04-14T12:16:58.934Z,72.02
2017-04-14T12:17:59.513Z,72.50
2017-04-14T12:19:00.089Z,72.60
2017-04-14T12:20:00.668Z,72.88
2017-04-14T12:21:01.247Z,73.07
2017-04-14T12:22:01.826Z,73.55
2017-04-14T12:23:02.403Z,73.55
2017-04-14T12:24:02.982Z,72.97
2017-04-14T12:25:03.579Z,73.07
2017-04-14T12:26:04.159Z,72.97
2017-04-14T12:27:04.737Z,73.17
2017-04-14T12:28:05.314Z,72.37
2017-04-14T12:29:05.891Z,73.36
2017-04-14T12:30:06.471Z,73.36
2017-04-14T12:31:07.048Z,72.97
2017-04-14T12:32:07.626Z,72.60
2017-04-14T12:33:08.204Z,72.60
2017-04-14T12:34:08.783Z,71.64
2017-04-14T12:35:09.561Z,72.21
2017-04-14T12:36:10.145Z,72.21
2017-04-14T12:37:10.739Z,72.97
2017-04-14T12:38:11.320Z,72.69
2017-04-14T12:39:11.897Z,72.78
2017-04-14T12:40:12.476Z,72.97
2017-04-14T12:41:13.069Z,71.70
2017-04-14T12:42:13.653Z,71.83
2017-04-14T12:43:14.228Z,72.21
2017-04-14T12:44:14.806Z,71.93
2017-04-14T12:45:15.382Z,72.50
2017-04-14T12:46:15.962Z,72.41
2017-04-14T12:47:16.540Z,72.69
2017-04-14T12:48:17.118Z,72.41
2017-04-14T12:49:17.698Z,70.40
2017-04-14T12:50:18.277Z,71.70
2017-04-14T12:51:18.873Z,71.89
2017-04-14T12:52:19.452Z,71.98
2017-04-14T12:53:20.047Z,71.83
2017-04-14T12:54:20.624Z,71.98
2017-04-14T12:55:21.201Z,72.31
2017-04-14T12:56:21.783Z,71.93
2017-04-14T12:57:22.376Z,72.46
2017-04-14T12:58:22.956Z,71.98
2017-04-14T12:59:23.535Z,71.70
2017-04-14T13:00:24.313Z,71.42